createdAt,value
2022-11-20T00:01:17.050Z,15.73
2022-11-20T00:03:43.964Z,17.10
2022-11-20T00:06:13.414Z,15.13
2022-11-20T00:08:39.751Z,16.17
2022-11-20T00:11:12.810Z,16.13
2022-11-20T00:13:42.095Z,16.65
2022-11-20T00:16:10.962Z,17.58
2022-11-20T00:18:37.391Z,15.75
2022-11-20T00:21:13.059Z,17.92
2022-11-20T00:23:39.615Z,15.27
2022-11-20T00:26:08.462Z,17.02
2022-11-20T00:28:35.416Z,18.55
2022-11-20T00:31:06.559Z,19.17
2022-11-20T00:33:33.794Z,21.50
2022-11-20T00:36:03.659Z,19.92
2022-11-20T00:38:30.501Z,17.63
2022-11-20T00:41:01.569Z,18.88
2022-11-20T00:43:28.539Z,16.88
2022-11-20T00:46:06.638Z,17.38
2022-11-20T00:48:33.335Z,16.45
2022-11-20T00:51:00.429Z,18.52
2022-11-20T00:53:26.964Z,17.65
2022-11-20T00:55:55.716Z,19.48
2022-11-20T00:58:23.011Z,17.52
2022-11-20T01:00:50.590Z,16.80
2022-11-20T01:03:22.712Z,16.65
2022-11-20T01:05:52.015Z,19.63
2022-11-20T01:08:18.370Z,17.55
2022-11-20T01:10:44.745Z,20.92
2022-11-20T01:13:29.820Z,16.70
2022-11-20T01:15:56.168Z,17.48
2022-11-20T01:18:22.479Z,17.77
2022-11-20T01:20:48.837Z,18.58
2022-11-20T01:23:15.141Z,19.02
2022-11-20T01:25:41.781Z,19.63
2022-11-20T01:28:08.167Z,20.45
2022-11-20T01:30:34.539Z,20.83
2022-11-20T01:33:00.891Z,18.27
2022-11-20T01:35:27.262Z,19.60
2022-11-20T01:37:53.589Z,19.30
2022-11-20T01:40:20.021Z,20.63
2022-11-20T01:43:17.518Z,20.13
2022-11-20T01:45:55.695Z,21.65
2022-11-20T01:48:25.093Z,23.20
2022-11-20T01:50:53.787Z,20.77
2022-11-20T01:53:26.050Z,20.65
2022-11-20T01:55:56.460Z,20.52
2022-11-20T01:58:29.546Z,21.10
2022-11-20T02:00:56.286Z,19.63
2022-11-20T02:03:22.879Z,21.88
2022-11-20T02:06:00.201Z,19.10
2022-11-20T02:08:26.580Z,19.25
2022-11-20T02:10:53.049Z,22.85
2022-11-20T02:13:38.517Z,21.00
2022-11-20T02:16:06.489Z,22.35
2022-11-20T02:18:34.184Z,22.55
2022-11-20T02:21:15.214Z,24.48
2022-11-20T02:24:05.024Z,22.08
2022-11-20T02:26:35.758Z,26.55
2022-11-20T02:29:03.948Z,21.65
2022-11-20T02:31:36.371Z,22.83
2022-11-20T02:34:02.764Z,24.08
2022-11-20T02:36:32.450Z,22.55
2022-11-20T02:38:58.790Z,22.58
2022-11-20T02:41:34.258Z,22.30
2022-11-20T02:44:01.086Z,23.92
2022-11-20T02:46:27.469Z,22.25
2022-11-20T02:48:53.912Z,23.25
2022-11-20T02:51:20.312Z,25.92
2022-11-20T02:53:46.696Z,22.45
2022-11-20T02:56:13.182Z,25.20
2022-11-20T02:58:39.561Z,23.60
2022-11-20T03:01:05.951Z,26.95
2022-11-20T03:03:32.298Z,24.48
2022-11-20T03:05:59.992Z,23.85
2022-11-20T03:08:26.665Z,23.85
2022-11-20T03:10:53.075Z,25.35
2022-11-20T03:13:19.442Z,22.65
2022-11-20T03:15:45.922Z,25.90
2022-11-20T03:18:12.295Z,25.63
2022-11-20T03:20:38.632Z,23.55
2022-11-20T03:23:05.123Z,23.83
2022-11-20T03:25:31.815Z,21.80
2022-11-20T03:27:58.138Z,22.75
2022-11-20T03:30:29.197Z,23.58
2022-11-20T03:32:57.044Z,21.83
2022-11-20T03:35:23.438Z,26.98
2022-11-20T03:37:49.800Z,24.23
2022-11-20T03:40:16.316Z,24.70
2022-11-20T03:42:48.753Z,24.77
2022-11-20T03:45:17.047Z,22.75
2022-11-20T03:47:43.876Z,23.42
2022-11-20T03:50:13.699Z,23.20
2022-11-20T03:52:40.721Z,23.60
2022-11-20T03:55:08.580Z,24.77
2022-11-20T03:57:34.942Z,22.35
2022-11-20T04:00:01.263Z,23.83
2022-11-20T04:02:27.627Z,23.17
2022-11-20T04:04:53.991Z,23.58
2022-11-20T04:07:20.459Z,26.05
2022-11-20T04:09:46.860Z,29.33
2022-11-20T04:12:13.216Z,26.98
2022-11-20T04:14:39.657Z,22.45
2022-11-20T04:17:06.055Z,25.08
2022-11-20T04:19:32.424Z,22.90
2022-11-20T04:21:58.723Z,21.52
2022-11-20T04:24:25.096Z,22.10
2022-11-20T04:26:51.481Z,21.27
2022-11-20T04:29:17.945Z,25.25
2022-11-20T04:31:44.329Z,24.60
2022-11-20T04:34:12.408Z,23.17
2022-11-20T04:36:38.767Z,20.45
2022-11-20T04:39:07.102Z,20.67
2022-11-20T04:41:36.388Z,23.00
2022-11-20T04:44:05.154Z,22.17
2022-11-20T04:46:36.915Z,22.38
2022-11-20T04:49:03.567Z,21.42
2022-11-20T04:51:30.085Z,24.50
2022-11-20T04:53:57.160Z,21.15
2022-11-20T04:56:23.710Z,23.00
2022-11-20T04:58:50.861Z,22.20
2022-11-20T05:01:20.580Z,21.98
2022-11-20T05:03:47.447Z,22.60
2022-11-20T05:06:16.171Z,20.70
2022-11-20T05:08:43.081Z,21.92
2022-11-20T05:11:12.646Z,21.75
2022-11-20T05:13:39.574Z,21.55
2022-11-20T05:16:12.134Z,23.05
2022-11-20T05:18:39.432Z,23.40
2022-11-20T05:21:06.589Z,23.40
2022-11-20T05:23:34.210Z,22.88
2022-11-20T05:26:01.602Z,23.23
2022-11-20T05:28:29.833Z,22.13
2022-11-20T05:30:56.708Z,26.02
2022-11-20T05:33:23.099Z,24.48
2022-11-20T05:35:49.774Z,29.27
2022-11-20T05:38:16.653Z,21.65
2022-11-20T05:40:43.025Z,22.23
2022-11-20T05:43:09.487Z,22.42
2022-11-20T05:45:36.085Z,21.35
2022-11-20T05:48:02.612Z,24.70
2022-11-20T05:50:29.394Z,22.30
2022-11-20T05:52:56.093Z,21.80
2022-11-20T05:55:22.469Z,21.23
2022-11-20T05:57:48.865Z,23.02
2022-11-20T06:00:15.836Z,22.02
2022-11-20T06:02:42.234Z,22.00
2022-11-20T06:05:08.984Z,26.95
2022-11-20T06:07:35.471Z,25.52
2022-11-20T06:10:01.970Z,23.95
2022-11-20T06:12:28.307Z,22.05
2022-11-20T06:14:54.681Z,21.67
2022-11-20T06:17:21.018Z,23.00
2022-11-20T06:19:47.427Z,24.88
2022-11-20T06:22:13.887Z,21.05
2022-11-20T06:24:40.239Z,25.75
2022-11-20T06:27:06.581Z,23.08
2022-11-20T06:29:34.247Z,23.23
2022-11-20T06:32:00.793Z,23.73
2022-11-20T06:34:27.201Z,21.85
2022-11-20T06:36:53.518Z,19.63
2022-11-20T06:39:20.775Z,20.45
2022-11-20T06:41:47.327Z,16.60
2022-11-20T06:44:13.809Z,18.35
2022-11-20T06:46:40.180Z,18.27
2022-11-20T06:49:06.894Z,19.48
2022-11-20T06:51:33.420Z,19.95
2022-11-20T06:54:00.546Z,20.15
2022-11-20T06:56:26.914Z,19.30
2022-11-20T06:58:53.287Z,17.38
2022-11-20T07:01:19.710Z,20.75
2022-11-20T07:03:48.973Z,20.50
2022-11-20T07:06:19.259Z,20.60
2022-11-20T07:08:45.672Z,22.75
2022-11-20T07:11:13.609Z,21.42
2022-11-20T07:13:40.009Z,20.33
2022-11-20T07:16:08.609Z,21.30
2022-11-20T07:18:35.446Z,21.30
2022-11-20T07:21:03.489Z,22.20
2022-11-20T07:23:30.074Z,21.00
2022-11-20T07:25:56.409Z,21.27
2022-11-20T07:28:22.818Z,18.73
2022-11-20T07:30:53.758Z,21.02
2022-11-20T07:33:20.471Z,21.08
2022-11-20T07:35:46.923Z,21.60
2022-11-20T07:38:13.302Z,20.02
2022-11-20T07:40:39.691Z,20.77
2022-11-20T07:43:06.038Z,20.50
2022-11-20T07:45:32.395Z,19.67
2022-11-20T07:47:58.703Z,19.05
2022-11-20T07:50:25.113Z,19.60
2022-11-20T07:52:51.618Z,19.77
2022-11-20T07:55:18.147Z,18.73
2022-11-20T07:57:44.504Z,20.10
2022-11-20T08:00:12.360Z,20.13
2022-11-20T08:02:40.267Z,23.58
2022-11-20T08:05:07.754Z,19.85
2022-11-20T08:07:38.814Z,23.30
2022-11-20T08:10:06.009Z,20.75
2022-11-20T08:12:50.711Z,20.98
2022-11-20T08:15:17.142Z,21.20
2022-11-20T08:17:56.758Z,19.20
2022-11-20T08:20:30.281Z,20.13
2022-11-20T08:23:06.289Z,21.85
2022-11-20T08:25:34.305Z,18.27
2022-11-20T08:28:11.594Z,20.10
2022-11-20T08:30:45.200Z,21.05
2022-11-20T08:33:11.642Z,22.23
2022-11-20T08:35:39.182Z,20.05
2022-11-20T08:38:06.501Z,21.67
2022-11-20T08:40:33.405Z,20.65
2022-11-20T08:43:00.113Z,20.73
2022-11-20T08:45:29.692Z,21.27
2022-11-20T08:48:03.992Z,19.38
2022-11-20T08:50:32.805Z,21.17
2022-11-20T08:53:05.754Z,19.45
2022-11-20T08:55:32.390Z,19.73
2022-11-20T08:57:58.821Z,18.70
2022-11-20T09:00:25.139Z,19.92
2022-11-20T09:02:51.653Z,22.15
2022-11-20T09:05:17.968Z,19.92
2022-11-20T09:07:44.377Z,22.10
2022-11-20T09:10:23.599Z,21.70
2022-11-20T09:12:52.692Z,24.42
2022-11-20T09:15:19.831Z,27.77
2022-11-20T09:17:56.881Z,26.17
2022-11-20T09:20:23.744Z,33.83
2022-11-20T09:22:50.128Z,34.95
2022-11-20T09:25:16.794Z,23.63
2022-11-20T09:27:46.639Z,21.42
2022-11-20T09:30:14.885Z,20.17
2022-11-20T09:32:41.683Z,20.52
2022-11-20T09:35:08.883Z,21.30
2022-11-20T09:37:35.952Z,23.80
2022-11-20T09:40:02.323Z,18.73
2022-11-20T09:42:42.296Z,19.40
2022-11-20T09:45:36.576Z,21.73
2022-11-20T09:48:36.924Z,23.80
2022-11-20T09:51:23.182Z,20.98
2022-11-20T09:54:14.071Z,20.67
2022-11-20T09:56:55.377Z,20.95
2022-11-20T09:59:41.508Z,21.58
2022-11-20T10:02:18.312Z,19.70
2022-11-20T10:04:51.847Z,18.73
2022-11-20T10:07:32.574Z,21.08
2022-11-20T10:10:00.230Z,19.65
2022-11-20T10:12:50.365Z,21.77
2022-11-20T10:15:31.556Z,19.85
2022-11-20T10:18:12.778Z,18.77
2022-11-20T10:20:49.087Z,21.40
2022-11-20T10:23:51.021Z,20.92
2022-11-20T10:26:23.972Z,19.67
2022-11-20T10:29:08.979Z,20.02
2022-11-20T10:31:38.427Z,20.00
2022-11-20T10:34:22.436Z,19.60
2022-11-20T10:36:57.311Z,20.33
2022-11-20T10:39:28.011Z,21.10
2022-11-20T10:41:54.656Z,20.05
2022-11-20T10:44:42.008Z,21.58
2022-11-20T10:47:15.333Z,20.45
2022-11-20T10:49:43.416Z,20.30
2022-11-20T10:52:48.383Z,22.55
2022-11-20T10:55:51.847Z,21.75
2022-11-20T10:58:39.040Z,22.77
2022-11-20T11:01:18.028Z,21.88
2022-11-20T11:03:45.150Z,23.17
2022-11-20T11:06:23.153Z,30.50
2022-11-20T11:08:54.069Z,23.42
2022-11-20T11:11:34.787Z,23.67
2022-11-20T11:14:07.971Z,24.80
2022-11-20T11:16:34.714Z,25.95
2022-11-20T11:19:14.547Z,21.48
2022-11-20T11:21:53.871Z,20.27
2022-11-20T11:24:41.221Z,23.30
2022-11-20T11:27:18.507Z,22.65
2022-11-20T11:29:46.835Z,20.00
2022-11-20T11:32:14.741Z,20.75
2022-11-20T11:34:41.506Z,20.58
2022-11-20T11:37:18.452Z,19.88
2022-11-20T11:39:49.390Z,21.95
2022-11-20T11:42:21.749Z,18.92
2022-11-20T11:45:07.247Z,21.42
2022-11-20T11:47:45.178Z,22.60
2022-11-20T11:50:21.069Z,23.05
2022-11-20T11:53:09.825Z,23.65
2022-11-20T11:56:04.190Z,22.27
2022-11-20T11:58:47.763Z,22.80
2022-11-20T12:01:26.263Z,22.23
2022-11-20T12:04:14.606Z,26.80
2022-11-20T12:06:46.339Z,24.05
2022-11-20T12:09:13.414Z,25.73
2022-11-20T12:11:59.737Z,21.77
2022-11-20T12:14:36.539Z,22.73
2022-11-20T12:17:03.603Z,24.08
2022-11-20T12:19:35.426Z,21.85
2022-11-20T12:22:23.700Z,25.77
2022-11-20T12:25:08.861Z,25.55
2022-11-20T12:28:13.129Z,23.98
2022-11-20T12:31:07.585Z,24.48
2022-11-20T12:33:52.404Z,21.60
2022-11-20T12:36:47.813Z,23.40
2022-11-20T12:39:20.120Z,24.08
2022-11-20T12:42:18.141Z,22.40
2022-11-20T12:45:14.149Z,25.38
2022-11-20T12:51:13.896Z,24.95
2022-11-20T12:53:52.975Z,24.70
2022-11-20T12:56:39.432Z,28.92
2022-11-20T12:59:17.910Z,24.77
2022-11-20T13:01:59.487Z,25.92
2022-11-20T13:04:34.840Z,29.80
2022-11-20T13:07:04.738Z,23.83
2022-11-20T13:09:32.313Z,29.75
2022-11-20T13:12:04.352Z,28.40
2022-11-20T13:15:10.032Z,29.00
2022-11-20T13:18:02.748Z,28.13
2022-11-20T13:20:30.717Z,28.67
2022-11-20T13:23:00.696Z,28.45
2022-11-20T13:25:32.935Z,26.92
2022-11-20T13:28:25.991Z,30.92
2022-11-20T13:30:54.660Z,29.48
2022-11-20T13:33:29.589Z,28.27
2022-11-20T13:36:01.757Z,29.55
2022-11-20T13:38:33.797Z,29.77
2022-11-20T13:41:25.050Z,26.83
2022-11-20T13:43:53.094Z,25.50
2022-11-20T13:46:25.211Z,30.25
2022-11-20T13:48:54.499Z,29.67
2022-11-20T13:51:23.517Z,31.42
2022-11-20T13:54:05.839Z,30.33
2022-11-20T13:57:05.586Z,27.77
2022-11-20T13:59:47.585Z,29.42
2022-11-20T14:02:16.670Z,31.95
2022-11-20T14:04:49.575Z,31.23
2022-11-20T14:07:17.969Z,30.60
2022-11-20T14:09:56.243Z,30.63
2022-11-20T14:12:33.922Z,28.60
2022-11-20T14:15:00.862Z,28.35
2022-11-20T14:17:31.441Z,28.92
2022-11-20T14:20:03.478Z,31.25
2022-11-20T14:22:30.193Z,32.47
2022-11-20T14:25:13.438Z,25.85
2022-11-20T14:27:42.777Z,27.15
2022-11-20T14:30:18.347Z,33.03
2022-11-20T14:32:46.620Z,33.88
2022-11-20T14:35:22.494Z,32.60
2022-11-20T14:37:48.942Z,30.85
2022-11-20T14:40:37.061Z,33.35
2022-11-20T14:43:23.431Z,31.60
2022-11-20T14:46:10.851Z,34.20
2022-11-20T14:48:42.573Z,33.05
2022-11-20T14:51:12.986Z,30.33
2022-11-20T14:53:39.392Z,36.03
2022-11-20T14:56:05.834Z,30.20
2022-11-20T14:58:34.408Z,35.97
2022-11-20T15:01:05.036Z,28.25
2022-11-20T15:03:39.358Z,30.58
2022-11-20T15:06:07.480Z,29.38
2022-11-20T15:08:34.926Z,31.38
2022-11-20T15:11:01.482Z,29.67
2022-11-20T15:13:32.953Z,31.15
2022-11-20T15:16:01.834Z,31.45
2022-11-20T15:18:37.332Z,31.95
2022-11-20T15:21:10.789Z,29.52
2022-11-20T15:23:37.148Z,32.05
2022-11-20T15:26:06.335Z,29.25
2022-11-20T15:28:35.321Z,30.38
2022-11-20T15:31:03.909Z,31.50
2022-11-20T15:33:31.030Z,26.85
2022-11-20T15:35:57.855Z,28.20
2022-11-20T15:38:24.356Z,28.55
2022-11-20T15:40:51.016Z,26.73
2022-11-20T15:43:17.451Z,27.52
2022-11-20T15:45:46.502Z,28.52
2022-11-20T15:48:21.196Z,28.80
2022-11-20T15:50:53.541Z,25.90
2022-11-20T15:53:20.030Z,30.67
2022-11-20T15:55:46.518Z,29.50
2022-11-20T15:58:12.851Z,27.70
2022-11-20T16:00:39.503Z,30.75
2022-11-20T16:03:06.083Z,27.98
2022-11-20T16:05:32.553Z,27.27
2022-11-20T16:07:58.966Z,29.55
2022-11-20T16:10:25.411Z,24.60
2022-11-20T16:13:10.279Z,27.88
2022-11-20T16:15:49.053Z,30.60
2022-11-20T16:18:20.947Z,29.45
2022-11-20T16:20:50.228Z,28.17
2022-11-20T16:23:16.924Z,26.30
2022-11-20T16:25:44.364Z,33.13
2022-11-20T16:28:16.124Z,28.30
2022-11-20T16:30:45.814Z,28.25
2022-11-20T16:33:18.134Z,30.10
2022-11-20T16:35:44.887Z,31.00
2022-11-20T16:38:11.255Z,31.88
2022-11-20T16:40:37.645Z,29.17
2022-11-20T16:43:14.700Z,29.00
2022-11-20T16:45:45.063Z,28.45
2022-11-20T16:48:16.620Z,30.58
2022-11-20T16:50:53.750Z,27.45
2022-11-20T16:53:21.410Z,26.30
2022-11-20T16:55:48.301Z,29.55
2022-11-20T16:58:15.424Z,25.10
2022-11-20T17:00:46.919Z,48.20
2022-11-20T17:03:17.915Z,27.25
2022-11-20T17:05:44.290Z,26.92
2022-11-20T17:08:10.591Z,28.42
2022-11-20T17:10:37.264Z,23.42
2022-11-20T17:13:03.646Z,27.55
2022-11-20T17:15:31.322Z,30.05
2022-11-20T17:17:57.732Z,21.73
2022-11-20T17:20:24.048Z,24.90
2022-11-20T17:22:50.459Z,22.88
2022-11-20T17:25:16.958Z,25.30
2022-11-20T17:27:43.326Z,19.15
2022-11-20T17:30:09.836Z,20.42
2022-11-20T17:32:36.224Z,21.48
2022-11-20T17:35:02.615Z,20.75
2022-11-20T17:37:29.009Z,19.15
2022-11-20T17:39:55.416Z,19.85
2022-11-20T17:42:29.337Z,15.95
2022-11-20T17:44:58.792Z,17.23
2022-11-20T17:47:25.846Z,17.85
2022-11-20T17:49:52.294Z,17.05
2022-11-20T17:52:18.642Z,16.33
2022-11-20T17:54:45.204Z,13.02
2022-11-20T17:57:30.417Z,11.93
2022-11-20T17:59:56.776Z,15.25
2022-11-20T18:02:23.161Z,11.35
2022-11-20T18:04:50.219Z,11.77
2022-11-20T18:07:16.589Z,13.43
2022-11-20T18:09:43.004Z,13.27
2022-11-20T18:12:09.331Z,12.65
2022-11-20T18:14:38.565Z,10.85
2022-11-20T18:17:08.118Z,13.30
2022-11-20T18:19:44.685Z,12.95
2022-11-20T18:22:16.156Z,12.73
2022-11-20T18:24:43.190Z,13.50
2022-11-20T18:27:16.245Z,9.18
2022-11-20T18:29:42.774Z,11.25
2022-11-20T18:32:09.192Z,12.13
2022-11-20T18:34:35.561Z,14.77
2022-11-20T18:37:01.943Z,11.82
2022-11-20T18:39:28.619Z,13.38
2022-11-20T18:42:13.815Z,13.00
2022-11-20T18:44:52.106Z,15.00
2022-11-20T18:47:28.384Z,13.85
2022-11-20T18:49:57.306Z,16.38
2022-11-20T18:52:48.251Z,16.23
2022-11-20T18:55:14.666Z,13.55
2022-11-20T18:57:41.075Z,12.38
2022-11-20T19:02:54.723Z,13.25
2022-11-20T19:05:21.286Z,13.88
2022-11-20T19:07:47.754Z,15.43
2022-11-20T19:10:14.303Z,16.42
2022-11-20T19:12:40.639Z,14.50
2022-11-20T19:15:07.398Z,17.00
2022-11-20T19:17:34.249Z,12.85
2022-11-20T19:20:00.917Z,13.60
2022-11-20T19:22:27.326Z,13.45
2022-11-20T19:24:53.717Z,15.15
2022-11-20T19:27:20.208Z,14.93
2022-11-20T19:29:46.584Z,18.70
2022-11-20T19:32:12.882Z,13.27
2022-11-20T19:34:39.301Z,19.58
2022-11-20T19:37:05.726Z,13.65
2022-11-20T19:39:32.198Z,14.02
2022-11-20T19:41:58.602Z,18.60
2022-11-20T19:44:24.982Z,12.18
2022-11-20T19:46:51.386Z,14.15
2022-11-20T19:49:17.885Z,18.67
2022-11-20T19:51:47.531Z,11.70
2022-11-20T19:54:14.061Z,17.88
2022-11-20T19:56:40.762Z,13.02
2022-11-20T19:59:07.166Z,19.17
2022-11-20T20:01:33.795Z,14.15
2022-11-20T20:04:05.469Z,17.45
2022-11-20T20:06:34.187Z,16.67
2022-11-20T20:09:03.999Z,18.52
2022-11-20T20:11:32.838Z,24.42
2022-11-20T20:14:08.420Z,14.73
2022-11-20T20:16:35.223Z,17.75
2022-11-20T20:19:03.989Z,13.27
2022-11-20T20:21:31.884Z,17.52
2022-11-20T20:23:59.359Z,19.33
2022-11-20T20:26:28.735Z,21.23
2022-11-20T20:28:55.219Z,18.23
2022-11-20T20:31:24.076Z,17.85
2022-11-20T20:33:50.937Z,21.48
2022-11-20T20:36:19.225Z,19.70
2022-11-20T20:38:46.457Z,20.27
2022-11-20T20:41:19.901Z,25.83
2022-11-20T20:44:05.210Z,19.23
2022-11-20T20:46:31.732Z,17.33
2022-11-20T20:48:58.459Z,15.13
2022-11-20T20:51:26.562Z,19.77
2022-11-20T20:53:52.943Z,19.58
2022-11-20T20:56:21.139Z,21.85
2022-11-20T20:58:47.530Z,32.10
2022-11-20T21:01:15.886Z,18.33
2022-11-20T21:03:42.447Z,15.80
2022-11-20T21:06:10.176Z,21.23
2022-11-20T21:08:40.331Z,21.10
2022-11-20T21:11:12.701Z,15.95
2022-11-20T21:13:40.616Z,23.25
2022-11-20T21:16:07.272Z,18.65
2022-11-20T21:18:34.325Z,24.80
2022-11-20T21:21:22.472Z,21.95
2022-11-20T21:23:48.891Z,17.70
2022-11-20T21:26:16.073Z,16.60
2022-11-20T21:28:42.828Z,15.88
2022-11-20T21:31:14.553Z,30.02
2022-11-20T21:33:45.685Z,20.65
2022-11-20T21:36:14.550Z,22.70
2022-11-20T21:38:41.020Z,17.70
2022-11-20T21:41:09.492Z,24.95
2022-11-20T21:43:36.179Z,19.42
2022-11-20T21:46:04.874Z,22.63
2022-11-20T21:48:32.389Z,21.52
2022-11-20T21:51:07.001Z,28.08
2022-11-20T21:53:34.134Z,21.02
2022-11-20T21:56:01.127Z,22.90
2022-11-20T21:58:28.187Z,24.67
2022-11-20T22:00:54.734Z,27.65
2022-11-20T22:03:21.319Z,17.98
2022-11-20T22:05:56.119Z,17.80
2022-11-20T22:08:24.139Z,27.30
2022-11-20T22:11:05.053Z,25.00
2022-11-20T22:13:50.065Z,16.67
2022-11-20T22:16:16.676Z,25.40
2022-11-20T22:18:44.643Z,17.10
2022-11-20T22:21:12.152Z,20.17
2022-11-20T22:23:38.587Z,16.23
2022-11-20T22:26:10.018Z,24.55
2022-11-20T22:28:37.304Z,23.17
2022-11-20T22:31:07.145Z,18.60
2022-11-20T22:33:34.782Z,21.83
2022-11-20T22:36:09.358Z,26.83
2022-11-20T22:38:39.449Z,22.02
2022-11-20T22:41:11.749Z,15.13
2022-11-20T22:43:38.715Z,19.15
2022-11-20T22:46:09.272Z,22.50
2022-11-20T22:48:37.723Z,15.07
2022-11-20T22:51:15.487Z,13.80
2022-11-20T22:53:42.770Z,21.25
2022-11-20T22:56:12.441Z,23.70
2022-11-20T22:58:41.219Z,17.17
2022-11-20T23:01:16.326Z,14.98
2022-11-20T23:06:11.299Z,22.40
2022-11-20T23:08:39.164Z,27.23
2022-11-20T23:11:16.894Z,39.15
2022-11-20T23:13:44.317Z,38.83
2022-11-20T23:16:16.363Z,38.78
2022-11-20T23:18:43.716Z,37.85
2022-11-20T23:21:13.337Z,37.63
2022-11-20T23:23:40.133Z,35.55
2022-11-20T23:26:17.097Z,37.17
2022-11-20T23:28:44.108Z,37.08
2022-11-20T23:31:11.979Z,34.15
2022-11-20T23:33:40.431Z,38.13
2022-11-20T23:36:07.532Z,35.25
2022-11-20T23:38:34.651Z,31.27
2022-11-20T23:41:01.623Z,30.60
2022-11-20T23:43:28.684Z,32.55
2022-11-20T23:46:00.799Z,30.17
2022-11-20T23:48:29.590Z,26.95
2022-11-20T23:50:56.574Z,28.60
2022-11-20T23:53:24.291Z,25.65
2022-11-20T23:55:53.399Z,25.05
2022-11-20T23:58:21.078Z,24.23
